sensor_id;sensor_type;location;lat;lon;timestamp;P1;durP1;ratioP1;P2;durP2;ratioP2
68097;SDS011;54886;47.036;15.466;2022-12-18T00:01:18;19.27;;;10.43;;
68097;SDS011;54886;47.036;15.466;2022-12-18T00:03:48;18.02;;;10.30;;
68097;SDS011;54886;47.036;15.466;2022-12-18T00:06:14;17.58;;;9.57;;
68097;SDS011;54886;47.036;15.466;2022-12-18T00:08:44;19.83;;;10.90;;
68097;SDS011;54886;47.036;15.466;2022-12-18T00:11:14;20.77;;;10.45;;
68097;SDS011;54886;47.036;15.466;2022-12-18T00:13:42;20.63;;;10.65;;
68097;SDS011;54886;47.036;15.466;2022-12-18T00:16:18;19.67;;;10.90;;
68097;SDS011;54886;47.036;15.466;2022-12-18T00:18:51;19.75;;;10.93;;
68097;SDS011;54886;47.036;15.466;2022-12-18T00:21:19;20.45;;;11.40;;
68097;SDS011;54886;47.036;15.466;2022-12-18T00:23:45;20.88;;;11.48;;
68097;SDS011;54886;47.036;15.466;2022-12-18T00:26:16;21.10;;;10.50;;
68097;SDS011;54886;47.036;15.466;2022-12-18T00:28:44;19.67;;;10.65;;
68097;SDS011;54886;47.036;15.466;2022-12-18T00:31:11;16.80;;;9.93;;
68097;SDS011;54886;47.036;15.466;2022-12-18T00:33:46;18.15;;;10.45;;
68097;SDS011;54886;47.036;15.466;2022-12-18T00:36:16;18.98;;;10.85;;
68097;SDS011;54886;47.036;15.466;2022-12-18T00:38:43;20.83;;;11.77;;
68097;SDS011;54886;47.036;15.466;2022-12-18T00:41:10;20.55;;;10.73;;
68097;SDS011;54886;47.036;15.466;2022-12-18T00:43:36;21.15;;;11.60;;
68097;SDS011;54886;47.036;15.466;2022-12-18T00:46:03;21.73;;;11.60;;
68097;SDS011;54886;47.036;15.466;2022-12-18T00:48:29;23.35;;;12.30;;
68097;SDS011;54886;47.036;15.466;2022-12-18T00:50:54;21.98;;;11.63;;
68097;SDS011;54886;47.036;15.466;2022-12-18T00:53:20;22.60;;;11.68;;
68097;SDS011;54886;47.036;15.466;2022-12-18T00:55:45;19.67;;;10.77;;
68097;SDS011;54886;47.036;15.466;2022-12-18T00:58:12;21.55;;;11.90;;
68097;SDS011;54886;47.036;15.466;2022-12-18T01:00:39;19.50;;;10.82;;
68097;SDS011;54886;47.036;15.466;2022-12-18T01:03:04;21.08;;;11.13;;
68097;SDS011;54886;47.036;15.466;2022-12-18T01:05:30;20.25;;;10.93;;
68097;SDS011;54886;47.036;15.466;2022-12-18T01:07:56;21.13;;;10.98;;
68097;SDS011;54886;47.036;15.466;2022-12-18T01:10:22;20.63;;;10.73;;
68097;SDS011;54886;47.036;15.466;2022-12-18T01:12:48;19.95;;;10.25;;
68097;SDS011;54886;47.036;15.466;2022-12-18T01:15:14;17.88;;;9.18;;
68097;SDS011;54886;47.036;15.466;2022-12-18T01:17:39;17.58;;;9.95;;
68097;SDS011;54886;47.036;15.466;2022-12-18T01:20:05;16.13;;;9.02;;
68097;SDS011;54886;47.036;15.466;2022-12-18T01:22:34;16.00;;;9.20;;
68097;SDS011;54886;47.036;15.466;2022-12-18T01:25:00;17.70;;;8.80;;
68097;SDS011;54886;47.036;15.466;2022-12-18T01:27:26;15.73;;;7.97;;
68097;SDS011;54886;47.036;15.466;2022-12-18T01:29:51;15.98;;;8.35;;
68097;SDS011;54886;47.036;15.466;2022-12-18T01:32:17;14.93;;;7.82;;
68097;SDS011;54886;47.036;15.466;2022-12-18T01:34:42;13.65;;;7.63;;
68097;SDS011;54886;47.036;15.466;2022-12-18T01:37:08;16.50;;;8.48;;
68097;SDS011;54886;47.036;15.466;2022-12-18T01:39:33;16.50;;;8.85;;
68097;SDS011;54886;47.036;15.466;2022-12-18T01:41:59;17.60;;;8.70;;
68097;SDS011;54886;47.036;15.466;2022-12-18T01:52:14;15.85;;;8.18;;
68097;SDS011;54886;47.036;15.466;2022-12-18T01:54:41;16.70;;;8.35;;
68097;SDS011;54886;47.036;15.466;2022-12-18T01:57:06;16.05;;;8.52;;
68097;SDS011;54886;47.036;15.466;2022-12-18T01:59:32;14.98;;;7.93;;
68097;SDS011;54886;47.036;15.466;2022-12-18T02:01:59;16.08;;;8.52;;
68097;SDS011;54886;47.036;15.466;2022-12-18T02:04:27;16.38;;;8.15;;
68097;SDS011;54886;47.036;15.466;2022-12-18T02:09:34;14.50;;;8.57;;
68097;SDS011;54886;47.036;15.466;2022-12-18T02:12:25;16.35;;;8.75;;
68097;SDS011;54886;47.036;15.466;2022-12-18T02:15:18;17.63;;;9.43;;
68097;SDS011;54886;47.036;15.466;2022-12-18T02:17:54;18.75;;;9.70;;
68097;SDS011;54886;47.036;15.466;2022-12-18T02:29:00;21.67;;;11.10;;
68097;SDS011;54886;47.036;15.466;2022-12-18T02:31:30;18.08;;;9.35;;
68097;SDS011;54886;47.036;15.466;2022-12-18T02:34:02;21.55;;;11.90;;
68097;SDS011;54886;47.036;15.466;2022-12-18T02:36:30;19.00;;;9.52;;
68097;SDS011;54886;47.036;15.466;2022-12-18T02:38:57;21.02;;;10.88;;
68097;SDS011;54886;47.036;15.466;2022-12-18T02:41:25;27.02;;;12.32;;
68097;SDS011;54886;47.036;15.466;2022-12-18T02:43:55;26.75;;;12.38;;
68097;SDS011;54886;47.036;15.466;2022-12-18T02:46:28;27.08;;;12.82;;
68097;SDS011;54886;47.036;15.466;2022-12-18T02:48:57;24.65;;;12.77;;
68097;SDS011;54886;47.036;15.466;2022-12-18T02:51:34;23.88;;;12.55;;
68097;SDS011;54886;47.036;15.466;2022-12-18T02:54:15;24.65;;;12.27;;
68097;SDS011;54886;47.036;15.466;2022-12-18T02:56:51;26.90;;;12.75;;
68097;SDS011;54886;47.036;15.466;2022-12-18T02:59:25;25.92;;;12.35;;
68097;SDS011;54886;47.036;15.466;2022-12-18T03:04:28;21.92;;;10.85;;
68097;SDS011;54886;47.036;15.466;2022-12-18T03:07:04;23.20;;;11.45;;
68097;SDS011;54886;47.036;15.466;2022-12-18T03:09:34;23.23;;;11.48;;
68097;SDS011;54886;47.036;15.466;2022-12-18T03:12:11;26.73;;;11.48;;
68097;SDS011;54886;47.036;15.466;2022-12-18T03:17:26;28.60;;;13.40;;
68097;SDS011;54886;47.036;15.466;2022-12-18T03:19:55;23.58;;;11.73;;
68097;SDS011;54886;47.036;15.466;2022-12-18T03:22:23;25.17;;;13.25;;
68097;SDS011;54886;47.036;15.466;2022-12-18T03:24:52;24.77;;;13.45;;
68097;SDS011;54886;47.036;15.466;2022-12-18T03:27:21;21.42;;;11.93;;
68097;SDS011;54886;47.036;15.466;2022-12-18T03:29:49;22.13;;;11.10;;
68097;SDS011;54886;47.036;15.466;2022-12-18T03:32:28;28.05;;;13.60;;
68097;SDS011;54886;47.036;15.466;2022-12-18T03:34:59;24.00;;;11.95;;
68097;SDS011;54886;47.036;15.466;2022-12-18T03:37:31;23.88;;;12.35;;
68097;SDS011;54886;47.036;15.466;2022-12-18T03:39:56;26.13;;;12.40;;
68097;SDS011;54886;47.036;15.466;2022-12-18T03:47:42;26.42;;;11.75;;
68097;SDS011;54886;47.036;15.466;2022-12-18T03:50:30;22.92;;;11.35;;
68097;SDS011;54886;47.036;15.466;2022-12-18T03:55:30;22.17;;;10.75;;
68097;SDS011;54886;47.036;15.466;2022-12-18T03:57:58;21.27;;;10.82;;
68097;SDS011;54886;47.036;15.466;2022-12-18T04:00:26;20.08;;;11.07;;
68097;SDS011;54886;47.036;15.466;2022-12-18T04:02:54;24.63;;;12.10;;
68097;SDS011;54886;47.036;15.466;2022-12-18T04:05:22;24.88;;;12.05;;
68097;SDS011;54886;47.036;15.466;2022-12-18T04:07:49;25.17;;;11.30;;
68097;SDS011;54886;47.036;15.466;2022-12-18T04:10:17;26.67;;;11.55;;
68097;SDS011;54886;47.036;15.466;2022-12-18T04:12:42;23.40;;;12.07;;
68097;SDS011;54886;47.036;15.466;2022-12-18T04:15:08;25.10;;;11.05;;
68097;SDS011;54886;47.036;15.466;2022-12-18T04:17:35;28.65;;;12.15;;
68097;SDS011;54886;47.036;15.466;2022-12-18T04:20:01;22.55;;;11.32;;
68097;SDS011;54886;47.036;15.466;2022-12-18T04:22:26;22.20;;;11.52;;
68097;SDS011;54886;47.036;15.466;2022-12-18T04:24:51;27.02;;;12.15;;
68097;SDS011;54886;47.036;15.466;2022-12-18T04:27:17;25.95;;;11.48;;
68097;SDS011;54886;47.036;15.466;2022-12-18T04:29:42;23.98;;;12.10;;
68097;SDS011;54886;47.036;15.466;2022-12-18T04:32:08;23.20;;;10.55;;
68097;SDS011;54886;47.036;15.466;2022-12-18T04:34:33;28.65;;;12.18;;
68097;SDS011;54886;47.036;15.466;2022-12-18T04:36:59;26.10;;;11.93;;
68097;SDS011;54886;47.036;15.466;2022-12-18T04:39:24;24.42;;;12.15;;
68097;SDS011;54886;47.036;15.466;2022-12-18T04:41:50;26.58;;;11.88;;
68097;SDS011;54886;47.036;15.466;2022-12-18T04:44:16;25.48;;;11.57;;
68097;SDS011;54886;47.036;15.466;2022-12-18T04:46:42;28.67;;;12.40;;
68097;SDS011;54886;47.036;15.466;2022-12-18T04:49:07;24.60;;;12.25;;
68097;SDS011;54886;47.036;15.466;2022-12-18T04:51:35;24.77;;;12.32;;
68097;SDS011;54886;47.036;15.466;2022-12-18T04:54:00;22.55;;;11.40;;
68097;SDS011;54886;47.036;15.466;2022-12-18T04:56:26;23.40;;;11.90;;
68097;SDS011;54886;47.036;15.466;2022-12-18T04:58:51;27.55;;;12.38;;
68097;SDS011;54886;47.036;15.466;2022-12-18T05:01:17;28.55;;;12.07;;
68097;SDS011;54886;47.036;15.466;2022-12-18T05:03:44;30.90;;;13.40;;
68097;SDS011;54886;47.036;15.466;2022-12-18T05:06:10;28.55;;;12.98;;
68097;SDS011;54886;47.036;15.466;2022-12-18T05:08:35;24.50;;;12.77;;
68097;SDS011;54886;47.036;15.466;2022-12-18T05:11:05;27.42;;;12.05;;
68097;SDS011;54886;47.036;15.466;2022-12-18T05:13:32;21.50;;;11.82;;
68097;SDS011;54886;47.036;15.466;2022-12-18T05:15:58;27.80;;;11.98;;
68097;SDS011;54886;47.036;15.466;2022-12-18T05:18:24;26.35;;;12.05;;
68097;SDS011;54886;47.036;15.466;2022-12-18T05:20:50;23.83;;;11.20;;
68097;SDS011;54886;47.036;15.466;2022-12-18T05:23:18;24.13;;;11.32;;
68097;SDS011;54886;47.036;15.466;2022-12-18T05:25:53;22.25;;;11.15;;
68097;SDS011;54886;47.036;15.466;2022-12-18T05:28:20;25.00;;;11.60;;
68097;SDS011;54886;47.036;15.466;2022-12-18T05:30:49;24.42;;;12.20;;
68097;SDS011;54886;47.036;15.466;2022-12-18T05:33:19;23.25;;;12.52;;
68097;SDS011;54886;47.036;15.466;2022-12-18T05:35:55;24.63;;;12.45;;
68097;SDS011;54886;47.036;15.466;2022-12-18T05:38:22;25.58;;;13.60;;
68097;SDS011;54886;47.036;15.466;2022-12-18T05:40:49;22.40;;;12.38;;
68097;SDS011;54886;47.036;15.466;2022-12-18T05:43:16;23.50;;;12.63;;
68097;SDS011;54886;47.036;15.466;2022-12-18T05:45:41;27.73;;;12.45;;
68097;SDS011;54886;47.036;15.466;2022-12-18T05:48:07;24.55;;;12.65;;
68097;SDS011;54886;47.036;15.466;2022-12-18T05:50:37;22.30;;;11.63;;
68097;SDS011;54886;47.036;15.466;2022-12-18T05:53:04;22.85;;;11.95;;
68097;SDS011;54886;47.036;15.466;2022-12-18T05:55:36;25.02;;;14.90;;
68097;SDS011;54886;47.036;15.466;2022-12-18T05:58:03;26.80;;;12.15;;
68097;SDS011;54886;47.036;15.466;2022-12-18T06:00:29;26.63;;;14.07;;
68097;SDS011;54886;47.036;15.466;2022-12-18T06:02:55;28.90;;;13.63;;
68097;SDS011;54886;47.036;15.466;2022-12-18T06:05:20;30.95;;;17.55;;
68097;SDS011;54886;47.036;15.466;2022-12-18T06:07:46;25.00;;;11.93;;
68097;SDS011;54886;47.036;15.466;2022-12-18T06:10:11;23.73;;;13.45;;
68097;SDS011;54886;47.036;15.466;2022-12-18T06:12:37;23.88;;;11.85;;
68097;SDS011;54886;47.036;15.466;2022-12-18T06:15:03;20.45;;;10.70;;
68097;SDS011;54886;47.036;15.466;2022-12-18T06:17:29;25.13;;;12.82;;
68097;SDS011;54886;47.036;15.466;2022-12-18T06:19:55;24.20;;;11.95;;
68097;SDS011;54886;47.036;15.466;2022-12-18T06:22:21;24.05;;;11.70;;
68097;SDS011;54886;47.036;15.466;2022-12-18T06:24:46;23.77;;;12.35;;
68097;SDS011;54886;47.036;15.466;2022-12-18T06:27:12;25.77;;;16.02;;
68097;SDS011;54886;47.036;15.466;2022-12-18T06:29:37;24.65;;;14.25;;
68097;SDS011;54886;47.036;15.466;2022-12-18T06:32:03;26.90;;;15.38;;
68097;SDS011;54886;47.036;15.466;2022-12-18T06:34:32;28.65;;;15.30;;
68097;SDS011;54886;47.036;15.466;2022-12-18T06:36:58;24.67;;;13.35;;
68097;SDS011;54886;47.036;15.466;2022-12-18T06:39:23;26.88;;;14.10;;
68097;SDS011;54886;47.036;15.466;2022-12-18T06:41:49;24.55;;;13.40;;
68097;SDS011;54886;47.036;15.466;2022-12-18T06:44:15;32.60;;;16.42;;
68097;SDS011;54886;47.036;15.466;2022-12-18T06:46:40;51.63;;;21.58;;
68097;SDS011;54886;47.036;15.466;2022-12-18T06:49:06;27.25;;;13.48;;
68097;SDS011;54886;47.036;15.466;2022-12-18T06:51:34;21.88;;;11.18;;
68097;SDS011;54886;47.036;15.466;2022-12-18T06:53:59;20.30;;;10.85;;
68097;SDS011;54886;47.036;15.466;2022-12-18T06:56:25;20.55;;;11.02;;
68097;SDS011;54886;47.036;15.466;2022-12-18T06:58:50;16.17;;;10.07;;
68097;SDS011;54886;47.036;15.466;2022-12-18T07:01:15;20.60;;;10.55;;
68097;SDS011;54886;47.036;15.466;2022-12-18T07:03:41;19.58;;;10.52;;
68097;SDS011;54886;47.036;15.466;2022-12-18T07:06:12;21.17;;;10.32;;
68097;SDS011;54886;47.036;15.466;2022-12-18T07:08:40;19.60;;;10.82;;
68097;SDS011;54886;47.036;15.466;2022-12-18T07:11:05;21.90;;;10.68;;
68097;SDS011;54886;47.036;15.466;2022-12-18T07:13:31;18.02;;;9.75;;
68097;SDS011;54886;47.036;15.466;2022-12-18T07:16:02;20.17;;;11.63;;
68097;SDS011;54886;47.036;15.466;2022-12-18T07:18:35;21.35;;;11.20;;
68097;SDS011;54886;47.036;15.466;2022-12-18T07:21:04;22.38;;;10.88;;
68097;SDS011;54886;47.036;15.466;2022-12-18T07:23:31;21.52;;;10.93;;
68097;SDS011;54886;47.036;15.466;2022-12-18T07:26:04;19.73;;;11.53;;
68097;SDS011;54886;47.036;15.466;2022-12-18T07:28:32;20.10;;;11.13;;
68097;SDS011;54886;47.036;15.466;2022-12-18T07:31:02;18.95;;;10.45;;
68097;SDS011;54886;47.036;15.466;2022-12-18T07:33:29;19.35;;;10.00;;
68097;SDS011;54886;47.036;15.466;2022-12-18T07:35:54;21.02;;;10.60;;
68097;SDS011;54886;47.036;15.466;2022-12-18T07:38:20;20.92;;;10.32;;
68097;SDS011;54886;47.036;15.466;2022-12-18T07:40:45;17.60;;;10.07;;
68097;SDS011;54886;47.036;15.466;2022-12-18T07:43:11;16.88;;;9.68;;
68097;SDS011;54886;47.036;15.466;2022-12-18T07:45:36;25.95;;;14.63;;
68097;SDS011;54886;47.036;15.466;2022-12-18T07:48:01;19.25;;;10.60;;
68097;SDS011;54886;47.036;15.466;2022-12-18T07:50:27;14.23;;;7.63;;
68097;SDS011;54886;47.036;15.466;2022-12-18T07:52:52;14.85;;;8.00;;
68097;SDS011;54886;47.036;15.466;2022-12-18T07:55:17;15.77;;;8.55;;
68097;SDS011;54886;47.036;15.466;2022-12-18T07:57:43;13.88;;;8.10;;
68097;SDS011;54886;47.036;15.466;2022-12-18T08:00:08;16.27;;;8.75;;
68097;SDS011;54886;47.036;15.466;2022-12-18T08:02:34;15.98;;;8.25;;
68097;SDS011;54886;47.036;15.466;2022-12-18T08:05:00;26.23;;;13.13;;
68097;SDS011;54886;47.036;15.466;2022-12-18T08:07:25;17.77;;;9.18;;
68097;SDS011;54886;47.036;15.466;2022-12-18T08:09:50;14.85;;;8.00;;
68097;SDS011;54886;47.036;15.466;2022-12-18T08:12:16;14.27;;;7.95;;
68097;SDS011;54886;47.036;15.466;2022-12-18T08:14:41;14.27;;;8.18;;
68097;SDS011;54886;47.036;15.466;2022-12-18T08:17:07;15.48;;;8.30;;
68097;SDS011;54886;47.036;15.466;2022-12-18T08:19:32;17.35;;;9.30;;
68097;SDS011;54886;47.036;15.466;2022-12-18T08:21:57;15.45;;;9.40;;
68097;SDS011;54886;47.036;15.466;2022-12-18T08:24:23;15.45;;;7.90;;
68097;SDS011;54886;47.036;15.466;2022-12-18T08:26:48;15.13;;;8.27;;
68097;SDS011;54886;47.036;15.466;2022-12-18T08:29:14;13.07;;;7.43;;
68097;SDS011;54886;47.036;15.466;2022-12-18T08:31:39;15.82;;;7.78;;
68097;SDS011;54886;47.036;15.466;2022-12-18T08:34:04;14.88;;;7.38;;
68097;SDS011;54886;47.036;15.466;2022-12-18T08:36:30;14.10;;;8.25;;
68097;SDS011;54886;47.036;15.466;2022-12-18T08:38:56;15.35;;;8.38;;
68097;SDS011;54886;47.036;15.466;2022-12-18T08:41:22;17.73;;;8.73;;
68097;SDS011;54886;47.036;15.466;2022-12-18T08:43:48;17.35;;;8.70;;
68097;SDS011;54886;47.036;15.466;2022-12-18T08:46:34;18.17;;;9.45;;
68097;SDS011;54886;47.036;15.466;2022-12-18T08:49:01;15.88;;;8.10;;
68097;SDS011;54886;47.036;15.466;2022-12-18T08:51:28;15.10;;;8.57;;
68097;SDS011;54886;47.036;15.466;2022-12-18T08:54:12;17.85;;;8.00;;
68097;SDS011;54886;47.036;15.466;2022-12-18T08:56:38;14.25;;;7.63;;
68097;SDS011;54886;47.036;15.466;2022-12-18T08:59:04;14.88;;;8.65;;
68097;SDS011;54886;47.036;15.466;2022-12-18T09:01:29;14.60;;;7.50;;
68097;SDS011;54886;47.036;15.466;2022-12-18T09:03:55;15.18;;;8.32;;
68097;SDS011;54886;47.036;15.466;2022-12-18T09:06:21;16.10;;;7.47;;
68097;SDS011;54886;47.036;15.466;2022-12-18T09:08:47;17.25;;;7.88;;
68097;SDS011;54886;47.036;15.466;2022-12-18T09:11:22;13.73;;;7.38;;
68097;SDS011;54886;47.036;15.466;2022-12-18T09:13:49;13.02;;;7.60;;
68097;SDS011;54886;47.036;15.466;2022-12-18T09:16:15;14.60;;;7.90;;
68097;SDS011;54886;47.036;15.466;2022-12-18T09:18:41;13.75;;;7.78;;
68097;SDS011;54886;47.036;15.466;2022-12-18T09:21:08;14.27;;;8.43;;
68097;SDS011;54886;47.036;15.466;2022-12-18T09:23:34;14.23;;;7.82;;
68097;SDS011;54886;47.036;15.466;2022-12-18T09:26:00;12.98;;;7.03;;
68097;SDS011;54886;47.036;15.466;2022-12-18T09:28:25;13.15;;;7.70;;
68097;SDS011;54886;47.036;15.466;2022-12-18T09:30:51;14.05;;;7.70;;
68097;SDS011;54886;47.036;15.466;2022-12-18T09:33:16;15.25;;;8.40;;
68097;SDS011;54886;47.036;15.466;2022-12-18T09:35:43;15.50;;;8.48;;
68097;SDS011;54886;47.036;15.466;2022-12-18T09:38:11;14.15;;;8.10;;
68097;SDS011;54886;47.036;15.466;2022-12-18T09:40:44;15.77;;;9.45;;
68097;SDS011;54886;47.036;15.466;2022-12-18T09:43:17;20.33;;;9.80;;
68097;SDS011;54886;47.036;15.466;2022-12-18T09:45:47;17.10;;;9.40;;
68097;SDS011;54886;47.036;15.466;2022-12-18T09:48:25;20.27;;;9.73;;
68097;SDS011;54886;47.036;15.466;2022-12-18T09:50:59;18.75;;;10.02;;
68097;SDS011;54886;47.036;15.466;2022-12-18T09:53:30;19.00;;;9.57;;
68097;SDS011;54886;47.036;15.466;2022-12-18T09:55:58;18.90;;;9.77;;
68097;SDS011;54886;47.036;15.466;2022-12-18T09:58:28;20.27;;;10.23;;
68097;SDS011;54886;47.036;15.466;2022-12-18T10:00:59;23.67;;;11.77;;
68097;SDS011;54886;47.036;15.466;2022-12-18T10:03:25;20.02;;;10.52;;
68097;SDS011;54886;47.036;15.466;2022-12-18T10:08:46;23.67;;;11.80;;
68097;SDS011;54886;47.036;15.466;2022-12-18T10:14:23;23.85;;;11.48;;
68097;SDS011;54886;47.036;15.466;2022-12-18T10:19:51;25.52;;;13.07;;
68097;SDS011;54886;47.036;15.466;2022-12-18T10:22:33;26.80;;;13.65;;
68097;SDS011;54886;47.036;15.466;2022-12-18T10:27:53;28.90;;;13.98;;
68097;SDS011;54886;47.036;15.466;2022-12-18T10:30:23;29.10;;;14.45;;
68097;SDS011;54886;47.036;15.466;2022-12-18T10:32:50;28.63;;;14.38;;
68097;SDS011;54886;47.036;15.466;2022-12-18T10:35:18;28.35;;;13.35;;
68097;SDS011;54886;47.036;15.466;2022-12-18T10:40:33;27.17;;;13.90;;
68097;SDS011;54886;47.036;15.466;2022-12-18T10:43:14;29.00;;;14.63;;
68097;SDS011;54886;47.036;15.466;2022-12-18T10:45:44;30.48;;;14.93;;
68097;SDS011;54886;47.036;15.466;2022-12-18T10:51:18;24.95;;;13.73;;
68097;SDS011;54886;47.036;15.466;2022-12-18T10:56:23;28.30;;;13.70;;
68097;SDS011;54886;47.036;15.466;2022-12-18T10:58:58;28.33;;;13.52;;
68097;SDS011;54886;47.036;15.466;2022-12-18T11:01:44;30.05;;;14.93;;
68097;SDS011;54886;47.036;15.466;2022-12-18T11:04:19;28.08;;;14.77;;
68097;SDS011;54886;47.036;15.466;2022-12-18T11:07:07;25.95;;;14.13;;
68097;SDS011;54886;47.036;15.466;2022-12-18T11:09:35;29.55;;;14.48;;
68097;SDS011;54886;47.036;15.466;2022-12-18T11:12:13;29.90;;;15.77;;
68097;SDS011;54886;47.036;15.466;2022-12-18T11:14:48;27.15;;;14.45;;
68097;SDS011;54886;47.036;15.466;2022-12-18T11:17:19;24.65;;;13.30;;
68097;SDS011;54886;47.036;15.466;2022-12-18T11:20:00;26.23;;;13.38;;
68097;SDS011;54886;47.036;15.466;2022-12-18T11:22:32;27.38;;;13.80;;
68097;SDS011;54886;47.036;15.466;2022-12-18T11:27:51;29.55;;;15.18;;
68097;SDS011;54886;47.036;15.466;2022-12-18T11:30:23;29.98;;;15.75;;
68097;SDS011;54886;47.036;15.466;2022-12-18T11:33:31;28.55;;;15.32;;
68097;SDS011;54886;47.036;15.466;2022-12-18T11:35:48;30.50;;;15.18;;
68097;SDS011;54886;47.036;15.466;2022-12-18T11:38:23;27.02;;;14.48;;
68097;SDS011;54886;47.036;15.466;2022-12-18T11:40:53;30.15;;;14.98;;
68097;SDS011;54886;47.036;15.466;2022-12-18T11:48:40;32.50;;;16.23;;
68097;SDS011;54886;47.036;15.466;2022-12-18T11:51:14;28.00;;;14.32;;
68097;SDS011;54886;47.036;15.466;2022-12-18T11:54:07;28.25;;;14.07;;
68097;SDS011;54886;47.036;15.466;2022-12-18T11:56:40;34.75;;;16.23;;
68097;SDS011;54886;47.036;15.466;2022-12-18T12:02:22;31.45;;;15.77;;
68097;SDS011;54886;47.036;15.466;2022-12-18T12:08:00;29.60;;;15.23;;
68097;SDS011;54886;47.036;15.466;2022-12-18T12:13:17;30.55;;;15.25;;
68097;SDS011;54886;47.036;15.466;2022-12-18T12:21:42;28.38;;;14.63;;
68097;SDS011;54886;47.036;15.466;2022-12-18T12:24:20;31.60;;;14.73;;
68097;SDS011;54886;47.036;15.466;2022-12-18T12:38:09;32.80;;;15.57;;
68097;SDS011;54886;47.036;15.466;2022-12-18T12:40:45;30.95;;;14.85;;
68097;SDS011;54886;47.036;15.466;2022-12-18T12:46:05;29.87;;;14.17;;
68097;SDS011;54886;47.036;15.466;2022-12-18T12:48:40;31.60;;;15.05;;
68097;SDS011;54886;47.036;15.466;2022-12-18T12:51:21;34.75;;;15.50;;
68097;SDS011;54886;47.036;15.466;2022-12-18T12:53:53;30.05;;;14.40;;
68097;SDS011;54886;47.036;15.466;2022-12-18T12:56:20;36.05;;;16.02;;
68097;SDS011;54886;47.036;15.466;2022-12-18T13:01:54;38.65;;;18.35;;
68097;SDS011;54886;47.036;15.466;2022-12-18T13:04:35;34.25;;;15.95;;
68097;SDS011;54886;47.036;15.466;2022-12-18T13:25:50;32.78;;;16.10;;
68097;SDS011;54886;47.036;15.466;2022-12-18T13:31:12;33.78;;;16.35;;
68097;SDS011;54886;47.036;15.466;2022-12-18T13:33:40;33.95;;;15.77;;
68097;SDS011;54886;47.036;15.466;2022-12-18T13:38:42;33.33;;;15.88;;
68097;SDS011;54886;47.036;15.466;2022-12-18T13:51:43;34.95;;;16.15;;
68097;SDS011;54886;47.036;15.466;2022-12-18T13:54:19;36.97;;;15.90;;
68097;SDS011;54886;47.036;15.466;2022-12-18T13:56:57;33.40;;;15.43;;
68097;SDS011;54886;47.036;15.466;2022-12-18T13:59:26;33.33;;;16.58;;
68097;SDS011;54886;47.036;15.466;2022-12-18T14:02:00;33.88;;;16.45;;
68097;SDS011;54886;47.036;15.466;2022-12-18T14:04:34;34.72;;;15.77;;
68097;SDS011;54886;47.036;15.466;2022-12-18T14:07:04;35.33;;;16.05;;
68097;SDS011;54886;47.036;15.466;2022-12-18T14:09:40;38.35;;;17.40;;
68097;SDS011;54886;47.036;15.466;2022-12-18T14:12:27;31.30;;;15.25;;
68097;SDS011;54886;47.036;15.466;2022-12-18T14:17:52;30.65;;;15.50;;
68097;SDS011;54886;47.036;15.466;2022-12-18T14:20:20;34.60;;;16.08;;
68097;SDS011;54886;47.036;15.466;2022-12-18T14:22:47;37.17;;;15.63;;
68097;SDS011;54886;47.036;15.466;2022-12-18T14:25:21;37.70;;;17.15;;
68097;SDS011;54886;47.036;15.466;2022-12-18T14:30:35;28.48;;;14.65;;
68097;SDS011;54886;47.036;15.466;2022-12-18T14:33:09;31.27;;;14.38;;
68097;SDS011;54886;47.036;15.466;2022-12-18T14:35:58;37.65;;;15.63;;
68097;SDS011;54886;47.036;15.466;2022-12-18T14:41:05;31.48;;;14.75;;
68097;SDS011;54886;47.036;15.466;2022-12-18T14:43:34;28.58;;;14.25;;
68097;SDS011;54886;47.036;15.466;2022-12-18T14:46:01;32.53;;;15.00;;
68097;SDS011;54886;47.036;15.466;2022-12-18T14:48:41;30.63;;;15.83;;
68097;SDS011;54886;47.036;15.466;2022-12-18T14:56:01;28.17;;;13.40;;
68097;SDS011;54886;47.036;15.466;2022-12-18T14:58:27;29.60;;;14.73;;
68097;SDS011;54886;47.036;15.466;2022-12-18T15:00:53;30.30;;;15.20;;
68097;SDS011;54886;47.036;15.466;2022-12-18T15:03:19;32.00;;;15.30;;
68097;SDS011;54886;47.036;15.466;2022-12-18T15:05:46;33.72;;;15.43;;
68097;SDS011;54886;47.036;15.466;2022-12-18T15:08:29;27.05;;;14.10;;
68097;SDS011;54886;47.036;15.466;2022-12-18T15:10:56;31.70;;;14.82;;
68097;SDS011;54886;47.036;15.466;2022-12-18T15:13:22;31.23;;;16.10;;
68097;SDS011;54886;47.036;15.466;2022-12-18T15:15:50;35.30;;;16.80;;
68097;SDS011;54886;47.036;15.466;2022-12-18T15:18:32;34.87;;;16.80;;
68097;SDS011;54886;47.036;15.466;2022-12-18T15:21:09;33.17;;;15.02;;
68097;SDS011;54886;47.036;15.466;2022-12-18T15:23:38;31.25;;;15.40;;
68097;SDS011;54886;47.036;15.466;2022-12-18T15:26:13;32.20;;;15.48;;
68097;SDS011;54886;47.036;15.466;2022-12-18T15:33:42;31.70;;;14.43;;
68097;SDS011;54886;47.036;15.466;2022-12-18T15:36:18;32.38;;;15.55;;
68097;SDS011;54886;47.036;15.466;2022-12-18T15:38:48;31.23;;;15.32;;
68097;SDS011;54886;47.036;15.466;2022-12-18T15:41:15;27.90;;;13.73;;
68097;SDS011;54886;47.036;15.466;2022-12-18T15:43:43;27.40;;;14.13;;
68097;SDS011;54886;47.036;15.466;2022-12-18T15:46:15;28.45;;;14.38;;
68097;SDS011;54886;47.036;15.466;2022-12-18T15:48:46;28.88;;;14.07;;
68097;SDS011;54886;47.036;15.466;2022-12-18T15:51:14;27.73;;;14.77;;
68097;SDS011;54886;47.036;15.466;2022-12-18T15:53:45;28.75;;;14.30;;
68097;SDS011;54886;47.036;15.466;2022-12-18T15:56:12;28.75;;;14.30;;
68097;SDS011;54886;47.036;15.466;2022-12-18T15:58:57;28.85;;;14.95;;
68097;SDS011;54886;47.036;15.466;2022-12-18T16:01:24;30.55;;;14.52;;
68097;SDS011;54886;47.036;15.466;2022-12-18T16:03:51;31.98;;;15.75;;
68097;SDS011;54886;47.036;15.466;2022-12-18T16:06:17;30.92;;;14.88;;
68097;SDS011;54886;47.036;15.466;2022-12-18T16:08:42;33.70;;;14.65;;
68097;SDS011;54886;47.036;15.466;2022-12-18T16:11:11;31.98;;;15.32;;
68097;SDS011;54886;47.036;15.466;2022-12-18T16:14:03;31.42;;;14.25;;
68097;SDS011;54886;47.036;15.466;2022-12-18T16:16:37;28.50;;;14.75;;
68097;SDS011;54886;47.036;15.466;2022-12-18T16:19:02;32.55;;;15.70;;
68097;SDS011;54886;47.036;15.466;2022-12-18T16:21:28;31.70;;;14.82;;
68097;SDS011;54886;47.036;15.466;2022-12-18T16:23:53;29.05;;;13.95;;
68097;SDS011;54886;47.036;15.466;2022-12-18T16:26:18;29.17;;;14.55;;
68097;SDS011;54886;47.036;15.466;2022-12-18T16:28:44;28.52;;;14.88;;
68097;SDS011;54886;47.036;15.466;2022-12-18T16:31:09;29.48;;;15.45;;
68097;SDS011;54886;47.036;15.466;2022-12-18T16:33:35;29.80;;;15.43;;
68097;SDS011;54886;47.036;15.466;2022-12-18T16:36:00;32.47;;;15.07;;
68097;SDS011;54886;47.036;15.466;2022-12-18T16:38:26;30.63;;;14.98;;
68097;SDS011;54886;47.036;15.466;2022-12-18T16:40:51;27.98;;;13.75;;
68097;SDS011;54886;47.036;15.466;2022-12-18T16:43:35;31.23;;;15.23;;
68097;SDS011;54886;47.036;15.466;2022-12-18T16:46:01;32.03;;;15.43;;
68097;SDS011;54886;47.036;15.466;2022-12-18T16:48:27;34.35;;;15.65;;